Truro, Massachusetts
Current Conditions -  °F | °C
As of 1:15 PM on Thursday 27 Nov 2014 (Local Time) from KPVC Reporting Station
Overcast Overcast  
Wind Chill: 32°   Ceiling: 2200
Heat Index: 39°   Visibility: 10mi
Dew Point: 30°   Wind: 10mph
Humidity: 70%   Direction: 340°NNW
Pressure: 29.93"   Gusts: NA
Location:  42°N, 70.07°W
Report Text: KPVC 271815Z 34009KT 10SM OVC022 04/M01 A2993 RMK AO1
Loading
Personal Weather Stations






























Interactive Weather Map New forecast layout! Learn more

10-Day Weather Forecast

Advertisements
Track Severe Weather on mobile